Terminal Aerodrome Forecast
Issued by NWS Glasgow, MT

Home | Current Version | Previous Version | Text Only | Print | Product List | Glossary On
Versions: 1 2 3 4 5 6 7 8 9 10 11 12
878
FTUS45 KGGW 291132
TAFGGW
TAF
KGGW 291132Z 2912/3012 00000KT 6SM BR FEW180
     FM291600 15006KT P6SM FEW140
     FM292000 19009KT P6SM SCT130
     FM300000 19009KT P6SM VCSH SCT090
     FM300300 16007KT P6SM SCT100=

USA.gov is the U.S. government's official web portal to all federal, state and local government web resources and services.